Terminal Aerodrome Forecast
Issued by NWS Sterling, VA

Current Version | Previous Version | Text Only | Print | Product List | Glossary Off
Versions: 1 2 3 4 5 6 7 8 9 10 11 12 13 14 15 16

433
FTUS41 KLWX 220521
TAFMRB
TAF
KMRB 220521Z 2206/2306 21004KT P6SM FEW250
     FM221800 26008KT P6SM SCT060
     FM230400 26004KT P6SM SCT080=

USA.gov is the U.S. government's official web portal to all federal, state and local government web resources and services.